Index, Washington
Current Conditions -  °F | °C
As of 6:53 AM on Saturday 20 Dec 2014 (Local Time) from KPAE Reporting Station
Light Rain Light Rain  
Wind Chill:   Ceiling: 4400
Heat Index:   Visibility: 6mi
Dew Point:   Wind: 12mph
Humidity: 85%   Direction: 160°SSE
Pressure: 29.65"   Gusts: 18mph
Location:  47.82°N, 121.56°W
Report Text: KPAE 201453Z 16010G16KT 6SM -RA BR FEW033 OVC044 07/04 A2965 RMK AO2 SLP043 P0004 60005 T00670044 56024
Loading
Personal Weather Stations






























Interactive Weather Map New forecast layout! Learn more

10-Day Weather Forecast

Advertisements
Track Severe Weather on mobile